Time;durP1;ratioP1;P1;durP2;ratioP2;P2;SDS_P1;SDS_P2;PMS_P1;PMS_P2;Temp;Humidity;BMP_temperature;BMP_pressure;BME280_temperature;BME280_humidity;BME280_pressure;Samples;Min_cycle;Max_cycle;Signal;HPM_P1;HPM_P2
2022/05/30 00:00:41;;;;;;;2.72;1.33;;;10.70;76.10;;;;;;5012649;28;20476;-74
2022/05/30 00:03:07;;;;;;;4.68;1.73;;;10.70;76.00;;;;;;5012547;28;20030;-74
2022/05/30 00:05:34;;;;;;;1.70;1.27;;;10.70;75.90;;;;;;5011583;28;20108;-72
2022/05/30 00:08:00;;;;;;;3.55;1.60;;;10.70;76.20;;;;;;5011583;28;20033;-72
2022/05/30 00:10:25;;;;;;;3.22;1.42;;;10.80;75.30;;;;;;5010810;28;20022;-72
2022/05/30 00:12:51;;;;;;;1.77;1.20;;;10.90;74.10;;;;;;5010799;28;20113;-71
2022/05/30 00:15:20;;;;;;;2.45;1.55;;;11.00;73.40;;;;;;5010814;28;20022;-71
2022/05/30 00:17:45;;;;;;;3.47;1.17;;;11.00;73.20;;;;;;5010251;28;20022;-73
2022/05/30 00:20:12;;;;;;;1.85;1.25;;;11.00;72.60;;;;;;5012200;28;20388;-71
2022/05/30 00:22:38;;;;;;;2.67;1.42;;;11.00;73.10;;;;;;5010846;28;20034;-71
2022/05/30 00:25:04;;;;;;;2.97;1.15;;;11.10;73.30;;;;;;5011966;28;20030;-71
2022/05/30 00:27:30;;;;;;;3.22;1.30;;;11.10;73.50;;;;;;5011189;28;20514;-73
2022/05/30 00:29:56;;;;;;;2.80;1.38;;;11.10;73.20;;;;;;5012066;28;20399;-73
2022/05/30 00:32:22;;;;;;;1.73;1.05;;;11.00;73.40;;;;;;5011917;28;20028;-71
2022/05/30 00:34:47;;;;;;;1.80;1.40;;;11.00;73.30;;;;;;5010716;28;20112;-71
2022/05/30 00:37:13;;;;;;;2.38;1.15;;;11.00;73.70;;;;;;5011339;28;20476;-71
2022/05/30 00:39:39;;;;;;;1.23;1.10;;;10.90;73.70;;;;;;5010489;28;20488;-71
2022/05/30 00:42:13;;;;;;;2.53;1.20;;;11.00;73.80;;;;;;5034433;23;20076;-70
2022/05/30 00:44:42;;;;;;;3.28;1.42;;;11.00;73.90;;;;;;5011998;28;20041;-70
2022/05/30 00:47:08;;;;;;;1.90;1.13;;;11.00;73.60;;;;;;5011128;28;20022;-70
2022/05/30 00:49:35;;;;;;;2.90;1.40;;;11.10;73.40;;;;;;5011839;28;20029;-70
2022/05/30 00:52:05;;;;;;;2.20;1.45;;;11.10;73.40;;;;;;5012196;28;20025;-70
2022/05/30 00:54:39;;;;;;;3.10;1.55;;;11.20;73.20;;;;;;5012628;28;20495;-70
2022/05/30 00:57:20;;;;;;;2.15;1.30;;;11.20;72.50;;;;;;5011810;28;20034;-70
2022/05/30 00:59:55;;;;;;;2.70;1.65;;;11.20;72.90;;;;;;5010707;28;20114;-71
2022/05/30 01:02:24;;;;;;;2.20;1.55;;;11.40;72.50;;;;;;5012197;28;20018;-71
2022/05/30 01:07:49;;;;;;;1.77;1.20;;;11.50;72.90;;;;;;5009592;28;20084;-71
2022/05/30 01:10:21;;;;;;;3.55;1.40;;;11.40;73.40;;;;;;5012034;28;20084;-71
2022/05/30 01:12:53;;;;;;;5.05;1.52;;;11.40;74.30;;;;;;5011476;28;20034;-71
2022/05/30 01:15:22;;;;;;;3.15;1.67;;;11.40;74.60;;;;;;5011541;28;20397;-71
2022/05/30 01:18:00;;;;;;;2.20;1.30;;;11.30;76.00;;;;;;5014346;28;20491;-71
2022/05/30 01:20:39;;;;;;;2.53;1.83;;;11.30;77.70;;;;;;5015890;28;20419;-70
2022/05/30 01:23:33;;;;;;;2.90;1.77;;;11.20;78.10;;;;;;5015419;28;20034;-71
2022/05/30 01:26:33;;;;;;;3.17;1.85;;;11.10;79.50;;;;;;5015411;28;20396;-71
2022/05/30 01:29:03;;;;;;;5.10;1.92;;;11.10;79.40;;;;;;5014504;28;20108;-72
2022/05/30 01:31:29;;;;;;;2.80;1.80;;;11.00;79.10;;;;;;5015309;28;20022;-71
2022/05/30 01:33:55;;;;;;;6.10;1.90;;;10.90;79.30;;;;;;5015104;28;20033;-71
2022/05/30 01:36:26;;;;;;;4.00;2.20;;;10.90;79.60;;;;;;5015186;28;20034;-71
2022/05/30 01:38:52;;;;;;;2.33;1.48;;;10.90;79.30;;;;;;5014487;28;20099;-71
2022/05/30 01:41:18;;;;;;;5.88;1.95;;;10.90;78.80;;;;;;5015137;28;20040;-70
2022/05/30 01:43:45;;;;;;;2.70;1.90;;;10.90;78.70;;;;;;5015316;28;20034;-70
2022/05/30 01:46:13;;;;;;;4.32;1.88;;;10.90;78.60;;;;;;5015029;28;20099;-70
2022/05/30 01:48:39;;;;;;;5.10;1.55;;;10.80;79.00;;;;;;5014014;28;20507;-70
2022/05/30 01:51:05;;;;;;;2.97;1.75;;;10.90;78.90;;;;;;5014862;28;20059;-70
2022/05/30 01:53:31;;;;;;;2.80;1.88;;;10.90;78.90;;;;;;5014953;28;20026;-70
2022/05/30 01:55:57;;;;;;;2.35;1.77;;;11.00;78.30;;;;;;5015100;28;20221;-71
2022/05/30 01:58:23;;;;;;;1.50;1.40;;;11.00;78.50;;;;;;5014130;28;20032;-71
2022/05/30 02:00:49;;;;;;;3.58;1.98;;;11.00;78.30;;;;;;5013567;28;20373;-70
2022/05/30 02:03:14;;;;;;;2.40;1.67;;;10.80;79.60;;;;;;5013245;28;20032;-70
2022/05/30 02:05:40;;;;;;;2.10;1.70;;;10.80;79.30;;;;;;5014750;28;20391;-71
2022/05/30 02:08:07;;;;;;;2.20;1.88;;;10.70;79.30;;;;;;5012665;28;20032;-71
2022/05/30 02:10:33;;;;;;;4.10;2.30;;;10.70;79.00;;;;;;5014523;28;20022;-71
2022/05/30 02:12:59;;;;;;;5.97;2.25;;;10.70;79.50;;;;;;5014484;28;20045;-70
2022/05/30 02:15:25;;;;;;;3.90;1.98;;;10.70;79.60;;;;;;5014496;28;20034;-70
2022/05/30 02:17:52;;;;;;;3.30;2.85;;;10.70;80.00;;;;;;5013568;28;20117;-71
2022/05/30 02:20:18;;;;;;;3.28;2.35;;;10.70;80.20;;;;;;5014516;28;20103;-71
2022/05/30 02:22:45;;;;;;;5.03;2.22;;;10.60;80.30;;;;;;5014256;28;20030;-71
2022/05/30 02:25:12;;;;;;;4.18;2.63;;;10.50;80.80;;;;;;5014346;28;20029;-71
2022/05/30 02:27:38;;;;;;;5.10;3.08;;;;;;;;;;5012364;28;20029;-71
2022/05/30 02:30:04;;;;;;;2.38;2.08;;;10.40;80.80;;;;;;5013149;28;20033;-70
2022/05/30 02:32:30;;;;;;;4.15;2.72;;;10.30;80.90;;;;;;5013965;28;20026;-70
2022/05/30 02:37:39;;;;;;;4.45;2.28;;;10.20;81.20;;;;;;5013347;28;20033;-70
2022/05/30 02:40:06;;;;;;;3.38;2.17;;;10.20;80.90;;;;;;5013948;28;20034;-70
2022/05/30 02:42:31;;;;;;;4.07;2.33;;;10.20;81.40;;;;;;5013596;28;20057;-70
2022/05/30 02:44:57;;;;;;;11.13;2.42;;;10.10;81.40;;;;;;5013763;28;20088;-71
2022/05/30 02:47:23;;;;;;;2.42;2.22;;;10.10;81.80;;;;;;5012919;28;20099;-70
2022/05/30 02:49:48;;;;;;;5.28;2.80;;;10.20;81.70;;;;;;5013667;28;20583;-71
2022/05/30 02:52:14;;;;;;;6.00;2.72;;;10.30;81.50;;;;;;5013724;28;20030;-71
2022/05/30 02:54:39;;;;;;;3.28;2.45;;;10.40;81.20;;;;;;5013579;28;20076;-71
2022/05/30 02:57:05;;;;;;;3.47;2.40;;;10.30;81.40;;;;;;5012873;28;20014;-69
2022/05/30 02:59:31;;;;;;;3.75;2.53;;;10.20;81.70;;;;;;5013236;28;20026;-70
2022/05/30 03:01:56;;;;;;;4.00;2.55;;;10.20;82.00;;;;;;5013231;28;20029;-70
2022/05/30 03:04:22;;;;;;;8.48;4.95;;;10.20;82.00;;;;;;5013562;28;20392;-70
2022/05/30 03:06:48;;;;;;;163.18;94.05;;;10.20;81.60;;;;;;5013653;28;20460;-71
2022/05/30 03:09:15;;;;;;;51.78;22.00;;;10.20;81.60;;;;;;5012376;28;20025;-70
2022/05/30 03:11:41;;;;;;;10.32;6.50;;;10.10;82.00;;;;;;5008499;28;20018;-71
2022/05/30 03:14:06;;;;;;;12.23;5.93;;;10.10;82.20;;;;;;4994508;28;20148;-71
2022/05/30 03:16:32;;;;;;;9.88;4.93;;;;;;;;;;4993480;28;20037;-71
2022/05/30 03:18:59;;;;;;;8.23;3.70;;;;;;;;;;4992829;28;20061;-71
2022/05/30 03:21:25;;;;;;;144.25;65.03;;;;;;;;;;4993668;28;20027;-71
2022/05/30 03:23:53;;;;;;;120.22;60.47;;;;;;;;;;4993809;28;20022;-71
2022/05/30 03:26:19;;;;;;;48.80;23.30;;;;;;;;;;4993942;28;20112;-71
2022/05/30 03:28:45;;;;;;;31.33;14.35;;;;;;;;;;4992698;28;20088;-71
2022/05/30 03:31:11;;;;;;;24.77;12.68;;;;;;;;;;4993502;28;20025;-71
2022/05/30 03:33:38;;;;;;;22.95;9.20;;;;;;;;;;4993554;28;20022;-71
2022/05/30 03:36:07;;;;;;;35.40;14.00;;;;;;;;;;4993412;28;20050;-71
2022/05/30 03:38:33;;;;;;;20.77;9.73;;;;;;;;;;4992682;28;20458;-71
2022/05/30 03:40:59;;;;;;;18.35;7.80;;;;;;;;;;4992892;28;20031;-71
2022/05/30 03:43:26;;;;;;;54.35;20.60;;;;;;;;;;4993080;28;20092;-71
2022/05/30 03:45:53;;;;;;;32.70;12.65;;;;;;;;;;4993048;28;20022;-71
2022/05/30 03:48:21;;;;;;;13.18;5.93;;;;;;;;;;4991207;28;20121;-71
2022/05/30 03:50:48;;;;;;;8.50;3.72;;;;;;;;;;4993298;28;20496;-71
2022/05/30 03:53:14;;;;;;;5.20;3.67;;;;;;;;;;4993398;28;20022;-71
2022/05/30 03:55:42;;;;;;;4.07;3.60;;;;;;;;;;4993591;28;20110;-71
2022/05/30 03:58:09;;;;;;;6.55;4.30;;;;;;;;;;4992792;28;20068;-70
2022/05/30 04:00:35;;;;;;;3.72;3.20;;;;;;;;;;4993033;28;20567;-70
2022/05/30 04:03:01;;;;;;;6.55;3.70;;;;;;;;;;4992815;28;20058;-70
2022/05/30 04:05:28;;;;;;;5.80;3.50;;;;;;;;;;4992954;28;20109;-71
2022/05/30 04:07:54;;;;;;;4.18;3.10;;;;;;;;;;4991830;28;20469;-70
2022/05/30 04:10:20;;;;;;;4.55;3.20;;;;;;;;;;4992500;28;20026;-71
2022/05/30 04:12:46;;;;;;;4.38;3.13;;;;;;;;;;4992689;28;20045;-71
2022/05/30 04:15:17;;;;;;;6.07;2.78;;;;;;;;;;4992624;28;20469;-70
2022/05/30 04:17:43;;;;;;;3.67;2.88;;;;;;;;;;4991914;28;20030;-71
2022/05/30 04:20:09;;;;;;;4.72;3.35;;;;;;;;;;4992744;28;20440;-71
2022/05/30 04:22:35;;;;;;;4.93;2.90;;;;;;;;;;4992371;28;20030;-71
2022/05/30 04:25:01;;;;;;;3.75;2.80;;;;;;;;;;4992592;28;20030;-71
2022/05/30 04:27:27;;;;;;;3.83;2.45;;;;;;;;;;4991485;28;20026;-71
2022/05/30 04:29:53;;;;;;;3.55;2.67;;;;;;;;;;4992797;28;20542;-70
2022/05/30 04:32:19;;;;;;;2.80;2.33;;;;;;;;;;4992384;28;20065;-71
2022/05/30 04:34:45;;;;;;;4.88;3.35;;;;;;;;;;4992559;28;20026;-71
2022/05/30 04:37:11;;;;;;;3.75;1.98;;;;;;;;;;4990335;28;20027;-71
2022/05/30 04:39:37;;;;;;;2.10;1.60;;;;;;;;;;4992408;28;20033;-71
2022/05/30 04:42:04;;;;;;;3.75;2.10;;;;;;;;;;4992234;28;20038;-71
2022/05/30 04:44:31;;;;;;;2.50;2.20;;;;;;;;;;4992452;28;20438;-73
2022/05/30 04:46:57;;;;;;;3.53;2.00;;;;;;;;;;4992241;28;20503;-71
2022/05/30 04:49:24;;;;;;;6.57;2.40;;;;;;;;;;4991266;28;20030;-71
2022/05/30 04:51:50;;;;;;;3.83;2.00;;;;;;;;;;4990402;28;20544;-70
2022/05/30 04:54:17;;;;;;;2.50;1.70;;;;;;;;;;4992309;28;20026;-71
2022/05/30 04:56:43;;;;;;;5.57;1.70;;;;;;;;;;4991528;28;20081;-70
2022/05/30 04:59:09;;;;;;;2.67;1.55;;;;;;;;;;4991394;28;20026;-70
2022/05/30 05:01:36;;;;;;;2.05;1.40;;;;;;;;;;4992619;28;20393;-68
2022/05/30 05:04:04;;;;;;;3.17;1.63;;;;;;;;;;4992727;28;20094;-71
2022/05/30 05:06:30;;;;;;;2.97;1.40;;;;;;;;;;4992155;28;20023;-71
2022/05/30 05:09:00;;;;;;;3.42;1.25;;;;;;;;;;4991378;28;20522;-70
2022/05/30 05:11:27;;;;;;;1.98;1.40;;;;;;;;;;4992600;28;20038;-71
2022/05/30 05:13:53;;;;;;;3.42;1.52;;;;;;;;;;4992072;28;20023;-71
2022/05/30 05:16:21;;;;;;;3.00;1.50;;;;;;;;;;4991858;28;20044;-71
2022/05/30 05:18:47;;;;;;;5.20;1.52;;;;;;;;;;4991062;28;20391;-70
2022/05/30 05:21:21;;;;;;;1.40;1.05;;;;;;;;;;4991945;28;20161;-71
2022/05/30 05:23:47;;;;;;;2.20;1.35;;;;;;;;;;4991632;28;20037;-71
2022/05/30 05:26:14;;;;;;;4.18;1.30;;;;;;;;;;4991955;28;20424;-71
2022/05/30 05:28:40;;;;;;;5.80;1.88;;;;;;;;;;4991358;28;20034;-72
2022/05/30 05:31:07;;;;;;;2.17;1.50;;;;;;;;;;4992019;28;20018;-71
2022/05/30 05:33:33;;;;;;;2.00;1.23;;;;;;;;;;4991814;28;20019;-71
2022/05/30 05:35:59;;;;;;;1.92;1.30;;;;;;;;;;4992238;28;20080;-70
2022/05/30 05:38:25;;;;;;;1.85;1.42;;;;;;;;;;4990232;28;20030;-71
2022/05/30 05:40:52;;;;;;;2.47;1.60;;;;;;;;;;4991357;28;20033;-71
2022/05/30 05:43:19;;;;;;;6.70;1.60;;;;;;;;;;4991223;28;20125;-71
2022/05/30 05:45:46;;;;;;;3.15;1.60;;;;;;;;;;4991676;28;20077;-72
2022/05/30 05:48:12;;;;;;;2.83;1.73;;;;;;;;;;4990492;28;20062;-71
2022/05/30 05:50:39;;;;;;;2.75;1.80;;;;;;;;;;4990549;28;20065;-70
2022/05/30 05:53:05;;;;;;;4.07;1.83;;;;;;;;;;4991448;28;20026;-70
2022/05/30 05:55:31;;;;;;;1.65;1.30;;;;;;;;;;4990069;28;20068;-71
2022/05/30 05:57:57;;;;;;;3.55;1.45;;;;;;;;;;4990539;28;20034;-71
2022/05/30 06:00:23;;;;;;;2.30;1.70;;;;;;;;;;4990977;28;20026;-71
2022/05/30 06:02:49;;;;;;;2.65;1.50;;;;;;;;;;4991589;28;20030;-71
2022/05/30 06:05:15;;;;;;;1.50;1.40;;;;;;;;;;4995078;28;20073;-71
2022/05/30 06:07:42;;;;;;;2.40;1.77;;;;;;;;;;4992603;28;20033;-71
2022/05/30 06:10:10;;;;;;;5.70;2.13;;;;;;;;;;4994733;28;20030;-71
2022/05/30 06:12:37;;;;;;;4.18;1.98;;;;;;;;;;4994609;28;20472;-71
2022/05/30 06:15:04;;;;;;;2.92;2.22;;;;;;;;;;4994801;28;20041;-71
2022/05/30 06:17:32;;;;;;;3.47;2.33;;;;;;;;;;4993940;28;20037;-70
2022/05/30 06:19:58;;;;;;;5.85;3.65;;;;;;;;;;4994674;28;20504;-70
2022/05/30 06:22:24;;;;;;;7.15;4.47;;;18.20;50.70;;;;;;4994567;28;20023;-70
2022/05/30 06:24:50;;;;;;;7.15;5.22;;;18.00;51.50;;;;;;4994841;28;20026;-71
2022/05/30 06:27:18;;;;;;;5.80;4.78;;;17.30;53.20;;;;;;4993742;28;20082;-70
2022/05/30 06:29:44;;;;;;;5.90;5.13;;;;;;;;;;4994279;28;20022;-71
2022/05/30 06:32:10;;;;;;;9.45;5.18;;;16.40;56.20;;;;;;4994192;28;20360;-70
2022/05/30 06:34:36;;;;;;;6.85;5.43;;;16.40;56.80;;;;;;4994344;28;20034;-71
2022/05/30 06:37:02;;;;;;;10.10;6.68;;;16.60;56.50;;;;;;4993601;28;20106;-70
2022/05/30 06:39:27;;;;;;;11.63;8.27;;;16.60;56.10;;;;;;4993851;28;20103;-70
2022/05/30 06:44:39;;;;;;;11.63;9.05;;;16.40;56.30;;;;;;4992677;28;20050;-72
2022/05/30 06:47:10;;;;;;;8.85;7.72;;;16.30;56.60;;;;;;4993575;28;20149;-71
2022/05/30 06:49:36;;;;;;;7.80;6.93;;;16.30;56.00;;;;;;4993815;28;20046;-71
2022/05/30 06:52:02;;;;;;;9.27;7.45;;;16.10;56.90;;;;;;4994645;28;20022;-72
2022/05/30 06:54:27;;;;;;;8.55;7.05;;;16.00;57.20;;;;;;4994389;28;20324;-69
2022/05/30 06:59:40;;;;;;;11.10;6.25;;;15.90;58.00;;;;;;4993763;28;20029;-72
2022/05/30 07:02:07;;;;;;;7.57;5.68;;;16.30;57.00;;;;;;4993920;28;20056;-72
2022/05/30 07:04:33;;;;;;;7.22;5.25;;;16.60;56.50;;;;;;4993686;28;20468;-73
2022/05/30 07:07:03;;;;;;;6.32;4.78;;;;;;;;;;4993734;28;20034;-71
2022/05/30 07:09:29;;;;;;;7.88;5.45;;;19.40;48.50;;;;;;4993385;28;20037;-72
2022/05/30 07:11:55;;;;;;;6.32;5.65;;;19.70;46.80;;;;;;4993830;28;20018;-72
2022/05/30 07:14:20;;;;;;;8.00;6.38;;;18.90;48.00;;;;;;4993338;28;20487;-72
2022/05/30 07:16:46;;;;;;;7.65;5.65;;;18.10;49.90;;;;;;4993648;28;20032;-72
2022/05/30 07:19:11;;;;;;;6.50;5.78;;;17.60;51.80;;;;;;4993048;28;20026;-73
2022/05/30 07:21:38;;;;;;;7.13;5.68;;;17.50;52.20;;;;;;4994006;28;20036;-72
2022/05/30 07:24:05;;;;;;;9.63;5.78;;;17.40;52.50;;;;;;4992423;28;20035;-72
2022/05/30 07:26:30;;;;;;;12.10;4.75;;;17.60;52.10;;;;;;4993330;28;20105;-72
2022/05/30 07:28:56;;;;;;;5.80;4.82;;;17.60;52.40;;;;;;4992684;28;20528;-74
2022/05/30 07:31:26;;;;;;;7.85;5.30;;;17.90;51.00;;;;;;4993336;28;20037;-73
2022/05/30 07:33:53;;;;;;;7.45;5.63;;;18.30;49.60;;;;;;4993384;28;20037;-74
2022/05/30 07:36:22;;;;;;;7.28;4.68;;;;;;;;;;4993111;28;20026;-75
2022/05/30 07:38:51;;;;;;;6.47;4.55;;;20.90;44.60;;;;;;4992300;28;20411;-74
2022/05/30 07:41:17;;;;;;;4.00;3.47;;;22.40;40.20;;;;;;4991743;28;20030;-74
2022/05/30 07:43:44;;;;;;;5.28;4.22;;;22.70;40.00;;;;;;4991450;28;20045;-74
2022/05/30 07:46:11;;;;;;;6.93;4.25;;;22.90;39.10;;;;;;4993043;28;20026;-73
2022/05/30 07:48:38;;;;;;;4.55;4.15;;;;;;;;;;4992222;28;20038;-73
2022/05/30 07:51:05;;;;;;;7.70;4.55;;;21.00;41.70;;;;;;4992539;28;20101;-72
2022/05/30 07:53:31;;;;;;;5.13;4.63;;;20.40;44.00;;;;;;4992861;28;20026;-73
2022/05/30 07:55:58;;;;;;;7.35;4.53;;;19.60;44.50;;;;;;4991518;28;20030;-72
2022/05/30 07:58:24;;;;;;;8.23;5.75;;;19.40;47.30;;;;;;4992114;28;20038;-72
2022/05/30 08:00:54;;;;;;;7.13;4.80;;;19.50;46.20;;;;;;4993221;28;20026;-72
2022/05/30 08:03:21;;;;;;;4.53;4.10;;;20.00;45.60;;;;;;4992747;28;20026;-73
2022/05/30 08:05:47;;;;;;;6.07;4.85;;;21.50;43.30;;;;;;4992674;28;20033;-73
2022/05/30 08:08:15;;;;;;;5.53;4.47;;;22.60;39.80;;;;;;4991813;28;20030;-74
2022/05/30 08:10:41;;;;;;;7.72;4.97;;;22.50;39.00;;;;;;4992767;28;20034;-71
2022/05/30 08:13:09;;;;;;;4.40;3.95;;;22.00;40.30;;;;;;4992696;28;20496;-73
2022/05/30 08:15:35;;;;;;;5.97;4.00;;;20.70;41.70;;;;;;4992234;28;20480;-73
2022/05/30 08:18:01;;;;;;;5.03;4.20;;;21.00;41.90;;;;;;4992078;28;20045;-73
2022/05/30 08:20:28;;;;;;;4.93;3.35;;;20.40;42.90;;;;;;4992545;28;20365;-73
2022/05/30 08:22:54;;;;;;;4.60;3.35;;;20.00;43.90;;;;;;4992264;28;20033;-72
2022/05/30 08:25:21;;;;;;;4.78;3.00;;;20.30;42.80;;;;;;4991967;28;20159;-73
2022/05/30 08:27:48;;;;;;;3.97;2.85;;;20.90;42.20;;;;;;4991475;28;20034;-74
2022/05/30 08:30:18;;;;;;;3.55;2.70;;;21.50;40.30;;;;;;4992170;28;20041;-73
2022/05/30 08:32:45;;;;;;;2.90;2.40;;;22.00;39.80;;;;;;4991889;28;20041;-73
2022/05/30 08:35:14;;;;;;;2.50;2.20;;;22.00;38.90;;;;;;4990860;28;20023;-74
2022/05/30 08:37:41;;;;;;;2.25;2.05;;;22.20;38.40;;;;;;4991467;28;20077;-73
2022/05/30 08:43:04;;;;;;;4.50;3.20;;;22.80;37.30;;;;;;4992053;28;20126;-73
2022/05/30 08:45:30;;;;;;;3.95;2.85;;;22.60;36.60;;;;;;4992364;28;20172;-74
2022/05/30 08:47:58;;;;;;;2.55;2.10;;;22.40;37.10;;;;;;4991266;28;20022;-74
2022/05/30 08:50:30;;;;;;;2.88;2.60;;;22.40;37.80;;;;;;4992169;28;20089;-73
2022/05/30 08:53:23;;;;;;;3.92;3.00;;;22.20;38.70;;;;;;4991786;28;20049;-73
2022/05/30 08:56:01;;;;;;;3.83;2.85;;;22.60;38.90;;;;;;4991873;28;20046;-73
2022/05/30 08:58:54;;;;;;;6.68;3.20;;;23.30;37.10;;;;;;4991404;28;20093;-73
2022/05/30 09:01:39;;;;;;;3.40;2.70;;;24.20;35.40;;;;;;4991953;28;20025;-73
2022/05/30 09:04:22;;;;;;;4.65;2.80;;;25.50;33.10;;;;;;4991570;28;20113;-72
2022/05/30 09:06:53;;;;;;;3.58;2.58;;;25.90;32.10;;;;;;4992216;28;20034;-73
2022/05/30 09:09:29;;;;;;;;;;;25.30;33.10;;;;;;4991578;28;20027;-73
2022/05/30 09:12:15;;;;;;;4.43;3.08;;;24.40;34.40;;;;;;4991834;28;19913;-73
2022/05/30 09:15:01;;;;;;;11.52;3.00;;;23.20;36.70;;;;;;4988582;28;20066;-73
2022/05/30 09:17:42;;;;;;;6.00;2.83;;;22.50;37.60;;;;;;4989596;28;20037;-73
2022/05/30 09:20:15;;;;;;;3.33;2.22;;;22.40;38.80;;;;;;4991808;28;20022;-75
2022/05/30 09:22:42;;;;;;;2.83;2.25;;;23.20;36.90;;;;;;4991777;28;20077;-73
2022/05/30 09:27:58;;;;;;;3.30;2.10;;;25.00;32.90;;;;;;4989637;28;20034;-73
2022/05/30 09:30:57;;;;;;;3.95;2.20;;;25.50;33.00;;;;;;4990435;28;20687;-73
2022/05/30 09:33:38;;;;;;;6.80;2.42;;;25.40;33.00;;;;;;4990712;28;20026;-73
2022/05/30 09:36:27;;;;;;;4.55;2.38;;;25.20;32.70;;;;;;4991744;28;20101;-73
2022/05/30 09:39:00;;;;;;;4.03;1.77;;;25.50;32.10;;;;;;4994596;28;20031;-72
2022/05/30 09:41:48;;;;;;;2.97;1.95;;;25.30;32.70;;;;;;4995406;28;20023;-73
2022/05/30 09:44:24;;;;;;;4.47;2.08;;;25.20;31.10;;;;;;4995272;28;20134;-73
2022/05/30 09:47:06;;;;;;;2.58;1.83;;;25.00;32.00;;;;;;4995167;28;20018;-73
2022/05/30 09:49:39;;;;;;;4.55;1.70;;;25.80;32.60;;;;;;4995136;28;20495;-72
2022/05/30 09:52:28;;;;;;;3.92;1.40;;;26.30;31.20;;;;;;4995089;28;20023;-72
2022/05/30 09:54:55;;;;;;;2.65;1.50;;;26.80;29.40;;;;;;4989651;28;20168;-73
2022/05/30 09:57:41;;;;;;;1.85;1.42;;;27.20;29.50;;;;;;4994334;28;20074;-73
2022/05/30 10:00:13;;;;;;;2.78;1.63;;;26.10;30.50;;;;;;4993861;28;20022;-73
2022/05/30 10:02:41;;;;;;;1.40;1.02;;;25.70;30.50;;;;;;4993639;28;20033;-74
2022/05/30 10:05:28;;;;;;;3.03;1.20;;;24.90;31.50;;;;;;4995199;28;20018;-73
2022/05/30 10:07:56;;;;;;;2.05;1.73;;;24.70;31.70;;;;;;4994087;28;20054;-71
2022/05/30 10:10:30;;;;;;;1.50;1.40;;;24.40;33.80;;;;;;4994839;28;20029;-73
2022/05/30 10:13:04;;;;;;;2.25;1.77;;;24.30;33.90;;;;;;4995112;28;20149;-72
2022/05/30 10:15:35;;;;;;;4.88;1.67;;;24.50;33.40;;;;;;4995082;28;20380;-72
2022/05/30 10:18:01;;;;;;;;;;;;;;;;;;4992740;28;20534;-73
2022/05/30 10:20:42;;;;;;;4.30;1.40;;;;;;;;;;4994948;28;19964;-73
2022/05/30 10:29:35;;;;;;;2.45;1.90;;;21.60;37.10;;;;;;4994189;28;20089;-69
2022/05/30 10:32:28;;;;;;;3.78;2.05;;;21.70;37.70;;;;;;4991609;28;20038;-74
2022/05/30 10:34:56;;;;;;;4.55;2.40;;;21.90;37.60;;;;;;4974787;28;20493;-74
2022/05/30 10:37:27;;;;;;;7.13;2.50;;;21.30;38.60;;;;;;4974390;28;20026;-73
2022/05/30 10:40:02;;;;;;;;;;;21.00;40.30;;;;;;4975634;28;20022;-73
2022/05/30 10:42:44;;;;;;;4.82;2.00;;;20.60;40.30;;;;;;4973576;28;19960;-74
2022/05/30 10:45:30;;;;;;;2.25;1.60;;;20.40;41.30;;;;;;4975759;28;20253;-73
2022/05/30 10:47:56;;;;;;;2.05;1.73;;;;;;;;;;4994004;28;20034;-72
2022/05/30 10:50:42;;;;;;;3.95;1.70;;;;;;;;;;4993819;28;20026;-74
2022/05/30 10:53:10;;;;;;;7.70;2.00;;;;;;;;;;4994514;28;20069;-74
2022/05/30 10:55:40;;;;;;;3.67;1.48;;;20.00;44.10;;;;;;4993977;28;20058;-73
2022/05/30 10:58:33;;;;;;;2.22;1.60;;;20.40;42.00;;;;;;4991749;28;20030;-73
2022/05/30 11:01:07;;;;;;;5.82;1.33;;;20.20;41.80;;;;;;4993601;28;20496;-73
2022/05/30 11:03:43;;;;;;;1.33;1.10;;;19.70;42.80;;;;;;4991611;28;20373;-70
2022/05/30 11:06:24;;;;;;;3.10;1.25;;;19.50;43.80;;;;;;4993933;28;20034;-73
2022/05/30 11:09:12;;;;;;;1.75;1.00;;;19.50;42.70;;;;;;4991668;28;20539;-73
2022/05/30 11:11:40;;;;;;;1.20;1.00;;;19.20;42.00;;;;;;4994341;28;20451;-72
2022/05/30 11:14:47;;;;;;;1.25;1.00;;;18.60;43.60;;;;;;4993650;28;20500;-73
2022/05/30 11:17:45;;;;;;;3.95;1.60;;;18.70;44.70;;;;;;4960601;28;20058;-75
2022/05/30 11:20:19;;;;;;;2.47;1.45;;;18.90;43.30;;;;;;4972032;28;20043;-72
2022/05/30 11:22:50;;;;;;;2.30;1.73;;;18.60;46.40;;;;;;4974022;28;20039;-72
2022/05/30 11:25:36;;;;;;;3.35;1.60;;;18.50;46.50;;;;;;4975208;28;20026;-73
2022/05/30 11:28:29;;;;;;;2.58;1.92;;;18.50;48.20;;;;;;4978831;28;20049;-74
2022/05/30 11:31:26;;;;;;;2.50;1.65;;;18.50;55.20;;;;;;4977850;28;20031;-74
2022/05/30 11:34:12;;;;;;;2.35;1.50;;;18.70;55.30;;;;;;4977006;28;20052;-73
2022/05/30 11:36:38;;;;;;;1.92;1.48;;;19.10;51.10;;;;;;4974293;28;20074;-73
2022/05/30 11:39:12;;;;;;;2.53;1.45;;;19.30;49.30;;;;;;4971923;28;20441;-75
2022/05/30 11:41:55;;;;;;;3.13;1.73;;;19.40;48.50;;;;;;4973662;28;20050;-73
2022/05/30 11:44:45;;;;;;;18.08;1.95;;;19.50;46.70;;;;;;4973503;28;20038;-70
2022/05/30 11:47:22;;;;;;;2.20;1.55;;;19.70;46.60;;;;;;4972914;28;20035;-72
2022/05/30 11:49:50;;;;;;;2.20;1.63;;;20.10;44.40;;;;;;4973433;28;20038;-72
2022/05/30 11:52:23;;;;;;;2.25;1.17;;;20.30;43.20;;;;;;4973570;28;20042;-75
2022/05/30 11:54:54;;;;;;;2.33;1.40;;;20.30;41.80;;;;;;4973330;28;20175;-72
2022/05/30 11:57:23;;;;;;;1.30;1.20;;;20.50;42.20;;;;;;4972806;28;20030;-71
2022/05/30 12:00:01;;;;;;;2.45;1.50;;;20.50;42.50;;;;;;4971902;28;20415;-73
2022/05/30 12:02:56;;;;;;;1.48;1.23;;;20.80;41.70;;;;;;4973111;28;20026;-73
2022/05/30 12:05:30;;;;;;;2.17;1.70;;;20.80;40.30;;;;;;4973116;28;20110;-72
2022/05/30 12:08:06;;;;;;;1.75;1.60;;;20.60;41.50;;;;;;4972385;28;20026;-72
2022/05/30 12:10:57;;;;;;;3.05;1.60;;;20.30;42.40;;;;;;4973198;28;20102;-73
2022/05/30 12:13:25;;;;;;;2.20;2.00;;;19.70;41.50;;;;;;4971997;28;20113;-71
2022/05/30 12:16:14;;;;;;;2.50;2.00;;;19.50;44.00;;;;;;4971733;28;20031;-73
2022/05/30 12:24:39;;;;;;;3.75;1.45;;;19.60;42.60;;;;;;4973310;28;20088;-73
2022/05/30 12:27:09;;;;;;;1.88;1.33;;;19.90;41.00;;;;;;4972332;28;20031;-73
2022/05/30 12:29:37;;;;;;;2.42;1.55;;;20.00;40.70;;;;;;4971018;28;20072;-73
2022/05/30 12:32:21;;;;;;;2.55;1.42;;;20.30;40.50;;;;;;4973422;28;20389;-71
2022/05/30 12:35:02;;;;;;;1.85;1.70;;;20.70;39.90;;;;;;4972729;28;20521;-73
2022/05/30 12:37:47;;;;;;;3.15;1.40;;;21.10;39.00;;;;;;4970833;28;20038;-72
2022/05/30 12:40:19;;;;;;;2.17;1.42;;;21.00;39.70;;;;;;4973063;28;20035;-73
2022/05/30 12:42:45;;;;;;;5.55;1.58;;;21.00;40.20;;;;;;5003725;23;20232;-71
2022/05/30 12:45:43;;;;;;;2.33;0.98;;;21.30;38.90;;;;;;4992080;28;20069;-71
2022/05/30 12:48:16;;;;;;;1.75;1.27;;;21.40;37.00;;;;;;4991486;28;20023;-73
2022/05/30 12:50:51;;;;;;;2.15;1.40;;;21.00;39.00;;;;;;4992227;28;20034;-72
2022/05/30 12:53:18;;;;;;;2.85;1.27;;;20.70;40.30;;;;;;4992448;28;20022;-71
2022/05/30 12:55:47;;;;;;;1.58;1.23;;;20.60;40.40;;;;;;4992280;28;20402;-71
2022/05/30 12:58:20;;;;;;;3.30;1.45;;;20.50;41.20;;;;;;4991269;28;20046;-71
2022/05/30 13:01:07;;;;;;;2.30;1.17;;;20.50;40.90;;;;;;4992210;28;20103;-71
2022/05/30 13:03:37;;;;;;;3.67;1.42;;;20.70;39.60;;;;;;4991990;28;20025;-71
2022/05/30 13:06:11;;;;;;;2.60;1.05;;;20.90;39.80;;;;;;4992446;28;20030;-72
2022/05/30 13:08:46;;;;;;;2.90;1.85;;;20.90;38.50;;;;;;4991427;28;20026;-72
2022/05/30 13:11:21;;;;;;;2.22;1.40;;;20.70;38.00;;;;;;4992326;28;20018;-72
2022/05/30 13:13:53;;;;;;;2.65;1.23;;;20.90;38.40;;;;;;4994521;28;20049;-71
2022/05/30 13:16:27;;;;;;;1.98;1.25;;;20.90;38.70;;;;;;4996098;28;20077;-72
2022/05/30 13:18:55;;;;;;;1.52;1.05;;;21.00;38.70;;;;;;4995407;28;20045;-72
2022/05/30 13:21:24;;;;;;;6.40;1.23;;;20.90;37.80;;;;;;4995979;28;20030;-72
2022/05/30 13:23:50;;;;;;;1.02;0.88;;;20.90;38.30;;;;;;4995902;28;20105;-72
2022/05/30 13:26:17;;;;;;;2.63;1.20;;;20.80;38.40;;;;;;4994768;28;20151;-70
2022/05/30 13:28:45;;;;;;;3.70;1.25;;;20.70;39.80;;;;;;4995095;28;20168;-71
2022/05/30 13:31:13;;;;;;;1.50;0.88;;;20.50;40.30;;;;;;4996307;28;20034;-72
2022/05/30 13:33:52;;;;;;;5.57;1.10;;;20.60;40.10;;;;;;4995930;28;20018;-71
2022/05/30 13:36:23;;;;;;;2.33;1.15;;;20.80;39.60;;;;;;4995524;28;20065;-70
2022/05/30 13:38:51;;;;;;;2.33;0.90;;;20.90;39.00;;;;;;4994807;28;20034;-72
2022/05/30 13:41:23;;;;;;;3.80;1.30;;;21.30;38.20;;;;;;4995635;28;20116;-71
2022/05/30 13:43:52;;;;;;;;;;;21.50;38.10;;;;;;4996083;28;20603;-72
2022/05/30 13:46:28;;;;;;;3.65;1.40;;;21.50;37.90;;;;;;4994024;28;19912;-71
2022/05/30 13:48:54;;;;;;;1.00;0.90;;;21.50;38.00;;;;;;4994697;28;20081;-72
2022/05/30 13:51:44;;;;;;;1.08;1.00;;;21.40;38.20;;;;;;4995305;28;20488;-72
2022/05/30 13:54:12;;;;;;;4.25;2.28;;;21.30;38.20;;;;;;4995239;28;20034;-72
2022/05/30 13:56:44;;;;;;;1.77;0.80;;;21.20;38.20;;;;;;4995216;28;20032;-72
2022/05/30 13:59:32;;;;;;;2.13;0.98;;;21.20;38.00;;;;;;4994602;28;20018;-72
2022/05/30 14:02:04;;;;;;;3.00;1.25;;;21.20;37.90;;;;;;4994978;28;20156;-71